Startpagina
METAR-TAF:

METAR-TAF

Vliegvelden :

Tiree, Schotland

breedte: 56-30N, lengte: 006-53W, hoogte: 12 m

Actueel weer

Dit bericht is 2 uur en het 0 minuten geleden gemaakt, om 16:20 UTC
Wind 19 kt uit het westzuidwesten
Temperatuur 9°C
Vochtigheid 61%
Druk 1030 hPa
Zicht 10 km of meer
Verspreide wolken op 2400 ft

METAR: EGPU 231620Z 25019KT 9999 SCT024 09/02 Q1030

Tijdstip: 18:20 (18:20 UTC)

Verwachting

Dit bericht is 4 uur en het 19 minuten geleden gemaakt, om 14:01 UTC
Verwachting geldig van 23 om 15 UTC tot 23 om 19 UTC
Wind 17 kt uit het westen
Zicht 10 km of meer
Weinig wolken op 1600 ft
Tijdelijke
van 23 om 15 UTC tot 23 om 19 UTC
Wind 20 kt uit het westnoordwesten met uitschieters tot 30 kt
Kans 30% :
Tijdelijke
van 23 om 15 UTC tot 23 om 19 UTC
Zicht: 6000 m
Gebroken wolken op 1200 ft, Cumulonimbus.
regenbuien

TAF: EGPU 231401Z 2315/2319 28017KT 9999 FEW016 TEMPO 2315/2319 29020G30KT PROB30 TEMPO 2315/2319 6000 SHRA BKN012CB

Waarnemingen en weersverwachtingen van meer dan 4000 vliegvelden (METAR en TAF).

De beschikbare stations zijn de gele en rode punten op de kaart.

Ga met uw muis naar het station om de naam te zien.

Klik dan om waarnemingen en weersverwachtingen te zien.

kaart wijzigen: klik op de groene knoppen met een zwart kruis om in te zoomen, op de groene knop met een streepje om uit te zoomen of op de groene pijlen voor aangrenzende kaarten.


METAR-TAF: